Flight Number: EUR1533 Duration: 1:30
Departure: Barra Airport (EGPR) at 08:15 Distance: 272 Nm
Arrival: Liverpool Airport (EGGP) at 09:45 Equipment: B1900D

Weather Information
404 Not Found

Not Found

The requested URL /data/observations/metar/decoded/EGPR.TXT was not found on this server.


Sunrise: 07:38 Sunset: 17:47 (UTC)

Liverpool Airport , United Kingdom (EGGP) 53-20N 002-51W Feb 24, 2018 - 12:50 AM EST / 2018.02.24 0550 UTC
Wind: from the SE (130 degrees) at 10 MPH (9 KT) (direction variable):0
Visibility: greater than 7 mile(s):0
Sky conditions: overcast Temperature: 35 F (2 C)
Windchill: 26 F (-3 C):1 Dew Point: 26 F (-3 C) Relative Humidity: 69% Pressure (altimeter): 30.18 in. Hg (1022 hPa)
ob: EGGP 240550Z 13009KT 100V160 9999 OVC025 02/M03 Q1022 cycle: 6
Sunrise: 07:12 Sunset: 17:36 (UTC)

TAF:2018/02/24 06:15 TAF EGGP 240505Z 2406/2506 12012KT 9999 FEW020 PROB30 2406/2409 8000

Previous Pireps for this route
Date Aircraft Flight time Fuel used Landing rate On time
2015-05-09B1900D01.391005-381Charter
2016-02-28B1900D01.12981-386Yes
2016-10-11B1900D01.121066-181No
(pireps marked green are flown by you)

Route map